createdAt,value
2023-02-24T00:01:28.819Z,31.57
2023-02-24T00:04:02.744Z,27.70
2023-02-24T00:06:37.040Z,26.70
2023-02-24T00:09:11.909Z,28.43
2023-02-24T00:11:45.281Z,39.17
2023-02-24T00:14:19.953Z,35.13
2023-02-24T00:16:51.817Z,30.80
2023-02-24T00:19:25.200Z,24.17
2023-02-24T00:21:57.340Z,38.97
2023-02-24T00:24:30.805Z,33.13
2023-02-24T00:27:08.125Z,30.23
2023-02-24T00:29:41.161Z,33.17
2023-02-24T00:32:13.641Z,34.63
2023-02-24T00:34:44.352Z,34.60
2023-02-24T00:37:17.227Z,38.23
2023-02-24T00:39:50.893Z,22.37
2023-02-24T00:42:23.042Z,26.13
2023-02-24T00:44:54.293Z,30.63
2023-02-24T00:47:26.789Z,31.57
2023-02-24T00:50:03.140Z,31.00
2023-02-24T00:52:38.507Z,27.10
2023-02-24T00:55:15.320Z,25.37
2023-02-24T00:57:45.621Z,29.30
2023-02-24T01:00:20.328Z,41.60
2023-02-24T01:02:53.018Z,37.03
2023-02-24T01:05:23.366Z,30.53
2023-02-24T01:07:53.988Z,40.53
2023-02-24T01:10:28.549Z,31.07
2023-02-24T01:12:55.946Z,29.83
2023-02-24T01:15:26.537Z,34.03
2023-02-24T01:17:59.553Z,30.40
2023-02-24T01:20:33.308Z,28.33
2023-02-24T01:23:03.656Z,31.60
2023-02-24T01:25:40.510Z,24.93
2023-02-24T01:28:14.351Z,33.03
2023-02-24T01:30:45.926Z,32.57
2023-02-24T01:33:18.748Z,39.17
2023-02-24T01:35:51.616Z,41.93
2023-02-24T01:38:28.072Z,27.63
2023-02-24T01:41:23.774Z,26.60
2023-02-24T01:44:09.778Z,34.20
2023-02-24T01:46:58.508Z,30.83
2023-02-24T01:49:44.567Z,19.90
2023-02-24T01:52:24.654Z,32.33
2023-02-24T01:55:07.609Z,33.27
2023-02-24T01:57:55.911Z,22.20
2023-02-24T02:00:51.606Z,17.60
2023-02-24T02:03:40.485Z,19.97
2023-02-24T02:06:26.742Z,22.80
2023-02-24T02:09:02.799Z,31.80
2023-02-24T02:11:40.787Z,27.43
2023-02-24T02:14:18.622Z,21.33
2023-02-24T02:17:05.966Z,32.00
2023-02-24T02:20:18.329Z,19.50
2023-02-24T02:23:26.546Z,19.90
2023-02-24T02:26:25.875Z,22.83
2023-02-24T02:29:36.526Z,27.40
2023-02-24T02:32:32.064Z,19.90
2023-02-24T02:35:13.705Z,27.17
2023-02-24T02:37:55.630Z,31.57
2023-02-24T02:40:37.459Z,30.00
2023-02-24T02:43:17.495Z,22.63
2023-02-24T02:45:55.766Z,20.00
2023-02-24T02:48:34.307Z,33.80
2023-02-24T02:51:11.834Z,25.33
2023-02-24T02:53:53.331Z,32.60
2023-02-24T02:56:30.780Z,24.97
2023-02-24T02:59:13.550Z,20.97
2023-02-24T03:01:54.416Z,25.93
2023-02-24T03:04:28.152Z,26.67
2023-02-24T03:07:10.732Z,25.67
2023-02-24T03:09:52.273Z,17.43
2023-02-24T03:12:48.639Z,19.53
2023-02-24T03:15:24.361Z,21.77
2023-02-24T03:18:04.521Z,28.93
2023-02-24T03:20:44.552Z,30.47
2023-02-24T03:23:26.072Z,29.97
2023-02-24T03:26:10.773Z,20.57
2023-02-24T03:29:00.396Z,23.27
2023-02-24T03:31:44.136Z,21.47
2023-02-24T03:34:23.462Z,17.30
2023-02-24T03:37:02.289Z,22.97
2023-02-24T03:39:47.316Z,20.50
2023-02-24T03:42:28.308Z,15.10
2023-02-24T03:45:01.449Z,25.33
2023-02-24T03:47:36.032Z,18.63
2023-02-24T03:50:14.648Z,19.63
2023-02-24T03:53:03.135Z,14.43
2023-02-24T03:55:46.115Z,18.60
2023-02-24T03:58:26.089Z,18.03
2023-02-24T04:01:10.853Z,13.97
2023-02-24T04:03:51.312Z,16.20
2023-02-24T04:06:44.177Z,21.13
2023-02-24T04:09:20.448Z,15.57
2023-02-24T04:12:14.363Z,19.80
2023-02-24T04:14:53.843Z,15.63
2023-02-24T04:17:30.400Z,16.73
2023-02-24T04:20:10.667Z,13.30
2023-02-24T04:22:49.304Z,15.13
2023-02-24T04:25:24.925Z,26.13
2023-02-24T04:28:03.496Z,11.97
2023-02-24T04:30:40.166Z,13.00
2023-02-24T04:33:11.393Z,18.60
2023-02-24T04:35:45.541Z,9.53
2023-02-24T04:38:16.078Z,20.57
2023-02-24T04:40:46.335Z,13.27
2023-02-24T04:43:19.502Z,20.00
2023-02-24T04:45:51.768Z,9.40
2023-02-24T04:48:22.091Z,7.40
2023-02-24T04:50:55.458Z,20.73
2023-02-24T04:53:28.296Z,19.00
2023-02-24T04:55:59.140Z,11.70
2023-02-24T04:58:32.491Z,13.30
2023-02-24T05:01:08.568Z,9.77
2023-02-24T05:03:42.581Z,10.90
2023-02-24T05:06:17.518Z,12.80
2023-02-24T05:08:48.158Z,12.43
2023-02-24T05:11:22.248Z,16.30
2023-02-24T05:13:58.517Z,12.30
2023-02-24T05:16:29.127Z,9.53
2023-02-24T05:19:11.368Z,13.63
2023-02-24T05:21:42.084Z,9.93
2023-02-24T05:24:17.466Z,7.50
2023-02-24T05:26:47.747Z,11.73
2023-02-24T05:29:20.454Z,13.03
2023-02-24T05:31:50.866Z,12.23
2023-02-24T05:34:20.797Z,14.20
2023-02-24T05:36:50.835Z,10.60
2023-02-24T05:39:22.093Z,13.27
2023-02-24T05:41:54.861Z,15.13
2023-02-24T05:44:31.933Z,30.07
2023-02-24T05:47:02.275Z,17.30
2023-02-24T05:49:34.503Z,11.23
2023-02-24T05:52:08.141Z,25.63
2023-02-24T05:54:41.625Z,16.80
2023-02-24T05:57:13.258Z,14.30
2023-02-24T05:59:46.692Z,14.07
2023-02-24T06:02:31.652Z,10.87
2023-02-24T06:14:18.022Z,14.43
2023-02-24T06:17:19.831Z,16.03
2023-02-24T06:30:29.209Z,9.83
2023-02-24T08:09:36.042Z,9.63
2023-02-24T08:27:06.728Z,9.27
2023-02-24T08:40:26.619Z,16.13
2023-02-24T09:03:46.622Z,15.83
2023-02-24T09:06:25.465Z,16.03
2023-02-24T09:09:17.694Z,11.20
2023-02-24T09:11:48.249Z,10.87
2023-02-24T09:14:28.936Z,12.73
2023-02-24T09:17:11.707Z,10.10
2023-02-24T09:19:58.901Z,11.73
2023-02-24T09:22:57.419Z,20.30
2023-02-24T09:25:40.865Z,13.73
2023-02-24T09:28:17.390Z,18.33
2023-02-24T09:30:53.888Z,15.03
2023-02-24T09:33:29.959Z,13.57
2023-02-24T09:36:13.281Z,13.47
2023-02-24T09:38:57.855Z,14.90
2023-02-24T09:41:45.364Z,10.93
2023-02-24T09:44:19.800Z,14.70
2023-02-24T09:46:56.609Z,13.90
2023-02-24T09:49:40.051Z,13.30
2023-02-24T09:52:19.596Z,10.47
2023-02-24T09:55:20.571Z,7.73
2023-02-24T09:58:26.992Z,17.63
2023-02-24T10:01:21.451Z,17.20
2023-02-24T10:04:14.859Z,20.30
2023-02-24T10:06:52.054Z,11.33
2023-02-24T10:09:34.570Z,9.83
2023-02-24T10:12:11.787Z,12.97
2023-02-24T10:14:51.532Z,18.00
2023-02-24T10:17:30.788Z,12.27
2023-02-24T10:20:14.149Z,11.30
2023-02-24T10:22:54.448Z,12.83
2023-02-24T10:25:36.589Z,11.70
2023-02-24T10:28:17.896Z,3.13
2023-02-24T10:31:01.875Z,14.10
2023-02-24T10:33:39.067Z,23.57
2023-02-24T10:36:12.543Z,11.60
2023-02-24T10:38:45.785Z,12.77
2023-02-24T10:41:21.013Z,8.40
2023-02-24T10:44:05.132Z,9.67
2023-02-24T10:46:42.117Z,12.10
2023-02-24T10:49:16.790Z,8.97
2023-02-24T10:51:53.999Z,7.80
2023-02-24T10:54:53.098Z,26.13
2023-02-24T10:57:42.475Z,10.23
2023-02-24T11:00:32.701Z,10.83
2023-02-24T11:03:10.670Z,10.70
2023-02-24T11:06:06.747Z,13.17
2023-02-24T11:08:44.173Z,8.17
2023-02-24T11:11:25.989Z,13.90
2023-02-24T11:14:15.058Z,11.23
2023-02-24T11:17:05.438Z,8.80
2023-02-24T11:19:40.716Z,10.73
2023-02-24T11:22:16.370Z,13.10
2023-02-24T11:24:47.875Z,10.00
2023-02-24T11:27:19.520Z,10.93
2023-02-24T11:30:10.230Z,9.93
2023-02-24T11:32:56.839Z,8.90
2023-02-24T11:35:32.723Z,11.93
2023-02-24T11:38:12.292Z,8.90
2023-02-24T11:40:48.387Z,8.87
2023-02-24T11:43:22.599Z,10.33
2023-02-24T11:46:00.973Z,5.30
2023-02-24T11:48:34.516Z,12.13
2023-02-24T11:51:07.781Z,6.57
2023-02-24T11:53:41.253Z,8.20
2023-02-24T11:56:16.969Z,7.50
2023-02-24T11:58:51.106Z,8.63
2023-02-24T12:01:30.905Z,7.60
2023-02-24T12:04:12.648Z,13.60
2023-02-24T12:06:51.123Z,8.17
2023-02-24T12:09:24.274Z,4.00
2023-02-24T12:11:59.763Z,10.07
2023-02-24T12:14:35.812Z,8.93
2023-02-24T12:17:18.657Z,5.73
2023-02-24T12:19:58.378Z,8.80
2023-02-24T12:22:35.567Z,7.90
2023-02-24T12:25:07.017Z,6.70
2023-02-24T12:27:49.548Z,9.43
2023-02-24T12:30:48.988Z,8.80
2023-02-24T12:33:31.821Z,8.40
2023-02-24T12:36:08.034Z,6.77
2023-02-24T12:38:50.825Z,9.93
2023-02-24T12:41:40.982Z,10.00
2023-02-24T12:44:24.557Z,6.70
2023-02-24T12:47:04.035Z,8.30
2023-02-24T12:49:58.986Z,8.43
2023-02-24T12:52:38.587Z,10.87
2023-02-24T12:55:17.751Z,7.50
2023-02-24T12:57:56.964Z,5.70
2023-02-24T13:00:34.548Z,7.70
2023-02-24T13:03:17.260Z,7.83
2023-02-24T13:05:56.824Z,8.13
2023-02-24T13:08:36.103Z,6.33
2023-02-24T13:11:14.363Z,7.60
2023-02-24T13:13:52.601Z,8.93
2023-02-24T13:16:32.563Z,7.17
2023-02-24T13:19:10.718Z,14.90
2023-02-24T13:21:43.735Z,10.70
2023-02-24T13:24:24.647Z,7.73
2023-02-24T13:26:54.782Z,6.90
2023-02-24T13:29:25.581Z,8.30
2023-02-24T13:31:56.678Z,6.00
2023-02-24T13:34:36.075Z,14.20
2023-02-24T13:37:08.979Z,11.73
2023-02-24T13:39:48.932Z,5.73
2023-02-24T13:42:25.673Z,10.90
2023-02-24T13:44:57.667Z,17.70
2023-02-24T13:48:02.951Z,8.67
2023-02-24T13:50:40.721Z,11.47
2023-02-24T13:53:36.261Z,14.27
2023-02-24T13:56:24.531Z,4.83
2023-02-24T13:59:25.314Z,7.37
2023-02-24T14:02:05.057Z,9.47
2023-02-24T14:04:40.297Z,5.07
2023-02-24T14:21:30.336Z,9.13
2023-02-24T14:24:05.336Z,12.53
2023-02-24T14:26:49.293Z,8.30
2023-02-24T14:29:25.701Z,10.53
2023-02-24T14:31:57.464Z,9.77
2023-02-24T14:34:29.388Z,6.80
2023-02-24T14:37:01.863Z,7.90
2023-02-24T14:39:35.218Z,13.27
2023-02-24T14:42:15.034Z,13.73
2023-02-24T14:44:49.472Z,11.60
2023-02-24T14:47:21.337Z,11.07
2023-02-24T14:49:59.828Z,14.60
2023-02-24T14:52:38.320Z,7.23
2023-02-24T14:55:11.216Z,6.40
2023-02-24T14:57:45.176Z,9.70
2023-02-24T15:00:24.699Z,7.87
2023-02-24T15:03:05.406Z,10.20
2023-02-24T15:05:35.388Z,10.93
2023-02-24T15:08:05.776Z,11.20
2023-02-24T15:10:35.634Z,9.13
2023-02-24T15:13:13.864Z,14.97
2023-02-24T15:15:46.895Z,15.17
2023-02-24T15:18:25.721Z,24.77
2023-02-24T15:21:04.139Z,12.90
2023-02-24T15:23:35.908Z,13.53
2023-02-24T15:26:06.149Z,9.23
2023-02-24T15:28:37.875Z,9.40
2023-02-24T15:31:18.612Z,10.40
2023-02-24T15:33:58.022Z,19.97
2023-02-24T15:36:30.155Z,20.73
2023-02-24T15:39:04.028Z,9.83
2023-02-24T15:41:44.905Z,14.53
2023-02-24T15:44:28.468Z,13.00
2023-02-24T15:47:03.023Z,11.30
2023-02-24T15:49:33.002Z,11.67
2023-02-24T15:52:55.311Z,12.73
2023-02-24T15:55:25.657Z,12.63
2023-02-24T15:58:01.838Z,17.70
2023-02-24T16:00:32.368Z,14.60
2023-02-24T16:03:04.668Z,10.70
2023-02-24T16:05:34.884Z,8.40
2023-02-24T19:00:45.708Z,11.27
2023-02-24T19:03:56.140Z,10.70
2023-02-24T19:07:36.387Z,15.20
2023-02-24T19:10:59.119Z,9.23
2023-02-24T19:14:00.676Z,12.87
2023-02-24T19:58:56.093Z,26.20
2023-02-24T20:02:01.041Z,28.50
2023-02-24T20:04:33.766Z,23.83
2023-02-24T20:07:04.005Z,26.37
2023-02-24T20:09:33.894Z,23.70
2023-02-24T20:12:03.840Z,30.57
2023-02-24T20:14:36.287Z,25.07
2023-02-24T20:17:06.227Z,26.47
2023-02-24T20:19:37.216Z,23.40
2023-02-24T20:22:07.219Z,29.23
2023-02-24T20:24:37.747Z,33.60
2023-02-24T20:27:08.001Z,19.90
2023-02-24T20:29:41.265Z,23.40
2023-02-24T20:32:10.985Z,28.90
2023-02-24T20:34:41.319Z,18.37
2023-02-24T20:37:10.990Z,26.53
2023-02-24T20:39:40.901Z,28.67
2023-02-24T20:42:12.232Z,23.33
2023-02-24T20:44:44.448Z,32.17
2023-02-24T20:47:14.096Z,30.60
2023-02-24T20:49:43.819Z,28.67
2023-02-24T20:52:13.495Z,35.27
2023-02-24T20:54:44.241Z,33.90
2023-02-24T20:57:13.915Z,24.07
2023-02-24T21:00:01.478Z,40.53
2023-02-24T21:02:33.091Z,43.87
2023-02-24T21:05:03.059Z,33.37
2023-02-24T21:07:36.972Z,29.77
2023-02-24T21:10:07.924Z,26.83
2023-02-24T21:12:37.558Z,25.23
2023-02-24T21:15:12.343Z,30.83
2023-02-24T21:17:42.309Z,40.50
2023-02-24T21:20:14.461Z,36.27
2023-02-24T21:22:44.812Z,43.33
2023-02-24T21:25:14.814Z,28.10
2023-02-24T21:27:44.591Z,25.97
2023-02-24T21:30:17.377Z,34.33
2023-02-24T21:32:47.082Z,22.17
2023-02-24T21:35:16.748Z,24.10
2023-02-24T21:37:46.366Z,25.20
2023-02-24T21:40:17.686Z,34.53
2023-02-24T21:42:47.742Z,30.87
2023-02-24T21:45:20.109Z,26.13
2023-02-24T21:47:49.942Z,35.20
2023-02-24T21:50:21.785Z,25.50
2023-02-24T21:52:52.562Z,24.80
2023-02-24T21:55:23.438Z,26.13
2023-02-24T21:57:53.200Z,31.30
2023-02-24T22:00:25.839Z,33.23
2023-02-24T22:02:57.609Z,24.97
2023-02-24T22:05:29.474Z,28.97
2023-02-24T22:07:59.635Z,34.20
2023-02-24T22:10:29.764Z,37.30
2023-02-24T22:13:01.688Z,23.13
2023-02-24T22:15:34.245Z,28.40
2023-02-24T22:18:03.940Z,30.87
2023-02-24T22:20:33.819Z,33.63
2023-02-24T22:23:03.872Z,32.10
2023-02-24T22:25:33.610Z,28.83
2023-02-24T22:28:03.233Z,25.03
2023-02-24T22:30:35.460Z,24.27
2023-02-24T22:33:05.302Z,26.33
2023-02-24T22:35:36.586Z,30.97
2023-02-24T22:38:06.471Z,36.47
2023-02-24T22:40:36.423Z,28.53
2023-02-24T22:43:06.354Z,30.40
2023-02-24T22:45:39.429Z,31.30
2023-02-24T22:48:09.082Z,33.30
2023-02-24T22:50:38.906Z,33.50
2023-02-24T22:53:08.684Z,28.90
2023-02-24T22:55:38.441Z,34.20
2023-02-24T22:58:08.082Z,31.43
2023-02-24T23:00:42.968Z,35.60
2023-02-24T23:03:12.653Z,28.87
2023-02-24T23:05:42.544Z,32.20
2023-02-24T23:08:12.529Z,37.13
2023-02-24T23:10:42.326Z,24.23
2023-02-24T23:13:12.068Z,34.53
2023-02-24T23:15:44.375Z,26.80
2023-02-24T23:18:14.068Z,22.07
2023-02-24T23:20:44.893Z,21.03
2023-02-24T23:23:16.070Z,33.73
2023-02-24T23:25:53.986Z,30.73
2023-02-24T23:28:23.873Z,22.13
2023-02-24T23:30:57.800Z,27.17
2023-02-24T23:33:28.322Z,30.97
2023-02-24T23:35:58.051Z,30.93
2023-02-24T23:38:27.861Z,29.00
2023-02-24T23:40:57.552Z,30.47
2023-02-24T23:43:27.206Z,24.87
2023-02-24T23:45:59.523Z,32.23
2023-02-24T23:48:29.385Z,21.93
2023-02-24T23:50:59.354Z,32.60
2023-02-24T23:53:29.174Z,40.30
2023-02-24T23:55:58.880Z,34.93
2023-02-24T23:58:28.624Z,24.93
